Kansas City, Missouri
Traffic Map
Current Weather Conditions
Kansas City, Missouri
Clear
Clear
52°
Feels Like: 52°
Wind Chill: 52° Ceiling: Unl
Heat Index: 52° Visibility: 10mi
Dew Point: 26° Wind: 5mph
Humidity: 37% Direction: 80° (E)
Pressure: 30.24in Gusts: 0mph
Raw Report DataKMKC 210954Z 08004KT 10SM CLR 11/M03 A3024 RMK AO2 SLP240 T01111033
Traffic Incident Summary
Active as of:
Severity:
Category:
InformationThere was an issue retrieving the traffic information for this location. Please try a different location or try again shortly.
Advertisements